Time;durP1;ratioP1;P1;durP2;ratioP2;P2;SDS_P1;SDS_P2;PMS_P1;PMS_P2;Temp;Humidity;BMP_temperature;BMP_pressure;BME280_temperature;BME280_humidity;BME280_pressure;Samples;Min_cycle;Max_cycle;Signal;HPM_P1;HPM_P2
2022/05/26 00:01:39;;;;;;;;;1.25;0.00;;;;;19.09;51.39;101827.19;4941299;28;45377;-70
2022/05/26 00:04:04;;;;;;;;;0.25;0.25;;;;;19.03;51.47;101820.28;4937815;28;46167;-71
2022/05/26 00:06:31;;;;;;;;;1.00;1.00;;;;;19.08;51.78;101825.47;4941565;28;45206;-70
2022/05/26 00:08:57;;;;;;;;;0.75;0.75;;;;;19.05;51.72;101818.34;4948813;28;45382;-70
2022/05/26 00:11:28;;;;;;;;;2.25;0.75;;;;;19.04;51.81;101818.44;4943742;28;45146;-70
2022/05/26 00:13:54;;;;;;;;;2.25;1.00;;;;;19.04;52.04;101826.56;4937702;28;46191;-71
2022/05/26 00:16:20;;;;;;;;;1.00;1.00;;;;;19.05;51.99;101831.88;4937994;28;45424;-71
2022/05/26 00:18:45;;;;;;;;;1.00;0.50;;;;;19.05;51.58;101829.19;4943428;28;45379;-70
2022/05/26 00:21:11;;;;;;;;;2.00;1.00;;;;;19.06;51.85;101827.34;4947402;28;45252;-70
2022/05/26 00:23:36;;;;;;;;;3.00;2.00;;;;;19.02;51.72;101829.31;4941805;28;46747;-70
2022/05/26 00:26:02;;;;;;;;;2.25;0.00;;;;;19.06;52.10;101832.75;4940302;28;45190;-70
2022/05/26 00:28:28;;;;;;;;;0.25;0.25;;;;;18.97;52.08;101815.16;4950602;28;45158;-70
2022/05/26 00:30:53;;;;;;;;;0.00;0.00;;;;;19.03;52.22;101832.94;4944547;28;45307;-70
2022/05/26 00:33:19;;;;;;;;;1.00;1.00;;;;;18.98;52.26;101821.47;4947242;28;47034;-70
2022/05/26 00:35:45;;;;;;;;;1.00;0.00;;;;;18.99;52.35;101829.47;4944624;28;45555;-70
2022/05/26 00:38:12;;;;;;;;;1.00;1.00;;;;;18.94;52.09;101814.44;5023501;28;45475;-70
2022/05/26 00:40:39;;;;;;;;;1.00;0.25;;;;;19.00;52.05;101827.66;4943637;28;45509;-70
2022/05/26 00:43:06;;;;;;;;;0.25;0.25;;;;;18.99;52.23;101829.47;4941355;28;48192;-70
2022/05/26 00:45:40;;;;;;;;;1.00;1.00;;;;;18.99;52.09;101831.31;4945015;28;45386;-70
2022/05/26 00:48:10;;;;;;;;;3.00;0.25;;;;;18.96;51.94;101828.75;4940641;28;45329;-70
2022/05/26 00:50:45;;;;;;;;;1.00;0.50;;;;;18.98;52.03;101832.28;4932510;28;45512;-70
2022/05/26 00:53:21;;;;;;;;;0.50;0.50;;;;;18.94;51.92;101822.56;4938690;28;45475;-70
2022/05/26 00:56:01;;;;;;;;;1.50;0.00;;;;;18.93;51.67;101826.22;4943497;28;45926;-70
2022/05/26 00:58:34;;;;;;;;;1.25;1.00;;;;;18.95;52.17;101827.91;4944823;28;45268;-70
2022/05/26 01:01:01;;;;;;;;;1.00;0.50;;;;;18.97;52.41;101838.66;4940682;28;45442;-70
2022/05/26 01:03:27;;;;;;;;;2.00;0.00;;;;;18.95;52.08;101830.59;4951978;28;45780;-70
2022/05/26 01:06:01;;;;;;;;;0.00;0.00;;;;;18.96;52.10;101837.78;4950990;28;45225;-70
2022/05/26 01:08:45;;;;;;;;;0.50;0.50;;;;;18.96;51.86;101839.59;4949737;28;45437;-70
2022/05/26 01:11:10;;;;;;;;;0.75;0.75;;;;;18.90;52.28;101829.97;4940880;28;45383;-70
2022/05/26 01:13:53;;;;;;;;;0.00;0.00;;;;;18.93;52.19;101831.63;4950524;28;46339;-70
2022/05/26 01:16:37;;;;;;;;;0.00;0.00;;;;;18.95;52.13;101846.84;4952111;28;45420;-70
2022/05/26 01:19:34;;;;;;;;;1.00;1.00;;;;;18.92;52.20;101841.56;4930213;28;45550;-70
2022/05/26 01:22:27;;;;;;;;;0.00;0.00;;;;;18.94;52.06;101845.06;4950566;28;45454;-70
2022/05/26 01:25:19;;;;;;;;;2.25;0.00;;;;;18.91;52.03;101838.94;4943969;28;45400;-70
2022/05/26 01:27:59;;;;;;;;;0.00;0.00;;;;;18.87;51.93;101840.94;4946776;28;45573;-70
2022/05/26 01:30:39;;;;;;;;;0.50;0.50;;;;;18.85;52.51;101843.72;4944491;28;45319;-70
2022/05/26 01:33:25;;;;;;;;;0.00;0.00;;;;;18.72;52.05;101825.44;4944747;28;46113;-70
2022/05/26 01:36:06;;;;;;;;;0.00;0.00;;;;;18.83;52.35;101852.88;4943193;28;45534;-70
2022/05/26 01:38:52;;;;;;;;;1.50;1.00;;;;;18.79;52.37;101841.25;4947806;28;45465;-70
2022/05/26 01:41:32;;;;;;;;;1.00;1.00;;;;;18.78;52.34;101847.66;4941424;28;45328;-70
2022/05/26 01:44:00;;;;;;;;;0.75;0.25;;;;;18.80;52.44;101851.16;4940372;28;45442;-70
2022/05/26 01:46:38;;;;;;;;;0.50;0.50;;;;;18.78;52.62;101850.34;4939667;28;46755;-70
2022/05/26 01:49:27;;;;;;;;;0.25;0.25;;;;;18.77;52.91;101851.28;4943032;28;45387;-70
2022/05/26 01:52:13;;;;;;;;;1.00;0.00;;;;;18.78;52.86;101861.16;4948533;28;45413;-70
2022/05/26 01:55:02;;;;;;;;;0.00;0.00;;;;;18.79;52.88;101856.63;4938461;28;45553;-70
2022/05/26 01:57:44;;;;;;;;;0.50;0.50;;;;;18.78;52.30;101855.75;4937319;28;47658;-70
2022/05/26 02:00:13;;;;;;;;;1.00;1.00;;;;;18.74;52.84;101845.16;4933621;28;45649;-70
2022/05/26 02:02:50;;;;;;;;;1.75;1.00;;;;;18.78;52.90;101849.47;4947553;28;45421;-70
2022/05/26 02:05:21;;;;;;;;;0.50;0.50;;;;;18.73;53.03;101855.13;4946328;28;45417;-70
2022/05/26 02:08:06;;;;;;;;;2.00;0.75;;;;;18.72;52.98;101850.63;4947400;28;45262;-70
2022/05/26 02:10:40;;;;;;;;;0.00;0.00;;;;;18.71;53.20;101848.91;4931125;28;45363;-70
2022/05/26 02:13:17;;;;;;;;;1.00;1.00;;;;;18.71;53.15;101854.31;4952675;28;45337;-70
2022/05/26 02:15:50;;;;;;;;;1.00;1.00;;;;;18.71;52.67;101848.91;4943371;28;45592;-70
2022/05/26 02:18:18;;;;;;;;;1.00;1.00;;;;;18.69;53.07;101840.88;4945660;28;45385;-70
2022/05/26 02:20:57;;;;;;;;;0.50;0.50;;;;;18.69;53.20;101857.09;4951501;28;45889;-71
2022/05/26 02:23:34;;;;;;;;;1.00;1.00;;;;;18.68;53.06;101854.47;4938267;28;45288;-70
2022/05/26 02:26:01;;;;;;;;;0.00;0.00;;;;;18.66;53.07;101856.34;4952587;28;45406;-70
2022/05/26 02:28:27;;;;;;;;;1.00;0.50;;;;;18.59;53.57;101849.50;4926911;28;45363;-70
2022/05/26 02:30:54;;;;;;;;;0.75;0.00;;;;;18.60;53.25;101849.41;4952766;28;45272;-70
2022/05/26 02:33:19;;;;;;;;;1.00;1.00;;;;;18.58;53.39;101848.63;4948399;28;45599;-71
2022/05/26 02:35:51;;;;;;;;;0.00;0.00;;;;;18.60;53.25;101845.84;4943942;28;45595;-70
2022/05/26 02:38:22;;;;;;;;;2.00;1.00;;;;;18.55;53.47;101851.47;4942545;28;46207;-70
2022/05/26 02:40:49;;;;;;;;;1.00;0.50;;;;;18.59;53.63;101868.41;4944561;28;45339;-70
2022/05/26 02:43:24;;;;;;;;;1.00;1.00;;;;;18.58;53.77;101859.44;4947067;28;45441;-70
2022/05/26 02:46:09;;;;;;;;;0.00;0.00;;;;;18.58;53.70;101848.63;4945692;28;45391;-70
2022/05/26 02:48:37;;;;;;;;;1.00;1.00;;;;;18.55;53.72;101856.88;4943929;28;45569;-70
2022/05/26 02:51:30;;;;;;;;;1.00;1.00;;;;;18.54;53.36;101857.81;4945450;28;45262;-70
2022/05/26 02:54:01;;;;;;;;;2.00;1.00;;;;;18.55;53.18;101853.31;4936545;28;45284;-70
2022/05/26 02:57:04;;;;;;;;;2.00;1.00;;;;;18.55;53.61;101861.41;4950037;28;45365;-70
2022/05/26 02:59:48;;;;;;;;;1.00;0.00;;;;;18.56;53.68;101868.56;4929201;28;45481;-70
2022/05/26 03:02:23;;;;;;;;;0.25;0.25;;;;;18.54;53.61;101863.22;4935917;28;47020;-70
2022/05/26 03:04:55;;;;;;;;;0.50;0.50;;;;;18.54;53.54;101863.22;4940751;28;45688;-70
2022/05/26 03:07:25;;;;;;;;;0.00;0.00;;;;;18.52;53.76;101848.91;4957262;28;45603;-70
2022/05/26 03:09:52;;;;;;;;;0.00;0.00;;;;;18.52;53.67;101852.47;4950026;28;47321;-70
2022/05/26 03:12:33;;;;;;;;;1.00;1.00;;;;;18.49;53.63;101849.06;4939084;28;45414;-70
2022/05/26 03:14:59;;;;;;;;;1.00;1.00;;;;;18.47;54.11;101851.81;4939205;28;45233;-71
2022/05/26 03:17:25;;;;;;;;;1.00;1.00;;;;;18.49;53.58;101863.47;4942137;28;45581;-71
2022/05/26 03:19:50;;;;;;;;;0.25;0.25;;;;;18.40;54.20;101849.50;4939111;28;45419;-70
2022/05/26 03:22:16;;;;;;;;;0.50;0.50;;;;;18.44;54.28;101860.13;4927222;28;45343;-70
2022/05/26 03:24:41;;;;;;;;;1.00;1.00;;;;;18.48;54.02;101861.69;4933359;28;45479;-71
2022/05/26 03:27:07;;;;;;;;;3.00;1.00;;;;;18.43;53.82;101865.59;4938559;28;45245;-71
2022/05/26 03:29:33;;;;;;;;;2.00;1.00;;;;;18.42;54.46;101867.41;4938812;28;45896;-72
2022/05/26 03:31:58;;;;;;;;;0.25;0.25;;;;;18.42;54.41;101875.50;4937624;28;45501;-70
2022/05/26 03:42:37;;;;;;;;;0.00;0.00;;;;;18.40;54.50;101887.34;4951573;28;45552;-69
2022/05/26 03:45:05;;;;;;;;;1.75;1.00;;;;;18.35;54.71;101875.88;4943261;28;45482;-70
2022/05/26 03:47:30;;;;;;;;;1.00;1.00;;;;;18.30;54.18;101876.09;4938089;28;45333;-70
2022/05/26 03:49:55;;;;;;;;;0.75;0.75;;;;;18.30;54.46;101895.88;4929536;28;45324;-70
2022/05/26 03:52:21;;;;;;;;;0.75;0.25;;;;;18.26;54.69;101882.56;4949933;28;45370;-71
2022/05/26 03:54:46;;;;;;;;;2.75;0.50;;;;;18.21;55.00;101882.81;4922037;28;45476;-72
2022/05/26 03:57:11;;;;;;;;;2.75;0.00;;;;;18.29;54.73;101906.75;4951152;28;45568;-70
2022/05/26 03:59:41;;;;;;;;;0.50;0.50;;;;;18.30;55.24;101906.69;4938139;28;46093;-72
2022/05/26 04:02:06;;;;;;;;;1.00;0.50;;;;;18.31;55.29;101904.88;4937208;28;45484;-70
2022/05/26 04:04:32;;;;;;;;;0.00;0.00;;;;;18.31;56.10;101903.06;4944267;28;45338;-71
2022/05/26 04:06:57;;;;;;;;;0.00;0.00;;;;;18.29;55.66;101898.66;4988769;28;45586;-71
2022/05/26 04:09:22;;;;;;;;;2.00;0.50;;;;;18.27;55.69;101898.72;4929396;28;45627;-73
2022/05/26 04:11:48;;;;;;;;;0.25;0.25;;;;;18.23;56.27;101896.25;4941422;28;45694;-73
2022/05/26 04:14:13;;;;;;;;;2.00;0.00;;;;;18.24;55.92;101903.41;4941742;28;45542;-71
2022/05/26 04:16:39;;;;;;;;;1.25;0.00;;;;;18.25;56.41;101906.03;4947128;28;45359;-71
2022/05/26 04:19:04;;;;;;;;;0.75;0.75;;;;;18.27;56.24;101912.22;4945424;28;46201;-71
2022/05/26 04:21:30;;;;;;;;;0.25;0.25;;;;;18.25;56.24;101913.28;4951583;28;45237;-71
2022/05/26 04:23:55;;;;;;;;;1.50;0.00;;;;;18.21;55.41;101907.13;4945438;28;45403;-71
2022/05/26 04:26:20;;;;;;;;;1.25;0.25;;;;;18.29;55.29;101913.06;4944092;28;45553;-71
2022/05/26 04:28:46;;;;;;;;;1.50;0.75;;;;;18.25;55.02;101903.31;4953993;28;45374;-71
2022/05/26 04:31:11;;;;;;;;;0.00;0.00;;;;;18.24;55.01;101908.81;4950696;28;45319;-71
2022/05/26 04:33:37;;;;;;;;;0.00;0.00;;;;;18.29;54.89;101923.88;4946337;28;45158;-71
2022/05/26 04:36:04;;;;;;;;;0.50;0.50;;;;;18.23;54.80;101917.88;4949695;28;45456;-71
2022/05/26 04:38:30;;;;;;;;;0.00;0.00;;;;;18.23;54.78;101925.97;4939900;28;45408;-71
2022/05/26 04:40:57;;;;;;;;;0.00;0.00;;;;;18.24;55.10;101930.41;4951280;28;45338;-71
2022/05/26 04:43:22;;;;;;;;;0.75;0.00;;;;;18.20;54.67;101928.81;4947526;28;45317;-71
2022/05/26 04:45:47;;;;;;;;;0.00;0.00;;;;;18.22;55.09;101938.59;4949866;28;45388;-71
2022/05/26 04:48:13;;;;;;;;;1.00;1.00;;;;;18.23;54.75;101936.78;4953694;28;45548;-71
2022/05/26 04:50:39;;;;;;;;;0.00;0.00;;;;;18.22;54.71;101935.88;4951531;28;45365;-71
2022/05/26 04:53:04;;;;;;;;;0.00;0.00;;;;;18.18;55.16;101931.59;4947433;28;45336;-71
2022/05/26 04:55:29;;;;;;;;;0.75;0.75;;;;;18.26;54.93;101945.63;4954307;28;45675;-71
2022/05/26 04:57:55;;;;;;;;;1.75;0.00;;;;;18.23;54.94;101944.91;4945579;28;46170;-71
2022/05/26 05:00:20;;;;;;;;;2.00;1.00;;;;;18.18;54.82;101936.13;4949587;28;45245;-71
2022/05/26 05:02:45;;;;;;;;;1.75;1.25;;;;;18.21;55.32;101947.66;4953917;28;45320;-71
2022/05/26 05:05:11;;;;;;;;;0.25;0.25;;;;;18.19;54.72;101944.13;4940992;28;45426;-71
2022/05/26 05:07:37;;;;;;;;;1.25;0.50;;;;;18.25;54.95;101945.69;4953434;28;45310;-71
2022/05/26 05:10:04;;;;;;;;;0.75;0.00;;;;;18.25;54.79;101949.28;4951410;28;45277;-71
2022/05/26 05:12:30;;;;;;;;;1.00;1.00;;;;;18.21;55.20;101944.06;4942300;28;45324;-71
2022/05/26 05:14:56;;;;;;;;;2.00;1.00;;;;;18.23;54.89;101944.91;4945158;28;45361;-71
2022/05/26 05:17:24;;;;;;;;;1.50;0.00;;;;;18.20;55.16;101955.84;4947473;28;46216;-71
2022/05/26 05:19:50;;;;;;;;;1.25;0.75;;;;;18.19;55.12;101960.34;4953426;28;45632;-71
2022/05/26 05:22:40;;;;;;;;;1.75;0.00;;;;;18.18;55.13;101961.31;4952234;28;45402;-71
2022/05/26 05:25:20;;;;;;;;;0.00;0.00;;;;;18.18;54.76;101964.03;4931562;28;45413;-71
2022/05/26 05:27:49;;;;;;;;;0.00;0.00;;;;;18.17;54.91;101962.25;4946975;28;45585;-71
2022/05/26 05:30:29;;;;;;;;;0.00;0.00;;;;;18.17;54.76;101967.66;4948176;28;45375;-71
2022/05/26 05:33:02;;;;;;;;;1.25;0.00;;;;;18.19;54.74;101971.16;4953391;28;45347;-71
2022/05/26 05:35:51;;;;;;;;;0.00;0.00;;;;;18.12;55.27;101958.88;4939375;28;45328;-71
2022/05/26 05:38:17;;;;;;;;;0.50;0.00;;;;;18.19;54.67;101967.59;4940619;28;45309;-71
2022/05/26 05:40:43;;;;;;;;;0.00;0.00;;;;;18.18;54.93;101960.44;4943173;28;45508;-71
2022/05/26 05:43:08;;;;;;;;;0.00;0.00;;;;;18.18;54.69;101965.84;4949210;28;45459;-71
2022/05/26 05:45:34;;;;;;;;;0.00;0.00;;;;;18.22;54.64;101978.25;4953026;28;45270;-71
2022/05/26 05:47:59;;;;;;;;;0.00;0.00;;;;;18.21;54.98;101977.41;4949679;28;47296;-71
2022/05/26 05:50:25;;;;;;;;;0.00;0.00;;;;;18.23;54.73;101978.19;4946585;28;45434;-71
2022/05/26 05:52:51;;;;;;;;;0.00;0.00;;;;;18.23;54.52;101975.50;4948912;28;45376;-70
2022/05/26 05:55:17;;;;;;;;;0.00;0.00;;;;;18.25;54.84;101984.41;4955692;28;45475;-70
2022/05/26 05:57:43;;;;;;;;;1.75;0.00;;;;;18.26;54.61;101982.56;4948461;28;45422;-71
2022/05/26 06:00:09;;;;;;;;;0.00;0.00;;;;;18.19;55.21;101973.00;4952777;28;45422;-71
2022/05/26 06:02:34;;;;;;;;;0.25;0.25;;;;;18.24;55.09;101987.19;4951446;28;45405;-71
2022/05/26 06:05:00;;;;;;;;;1.00;0.00;;;;;18.22;55.08;101984.53;4940155;28;45938;-71
2022/05/26 06:07:25;;;;;;;;;0.00;0.00;;;;;18.23;54.79;101989.00;4949658;28;45394;-70
2022/05/26 06:09:51;;;;;;;;;1.50;1.50;;;;;18.22;54.93;101978.25;4946277;28;45409;-70
2022/05/26 06:12:17;;;;;;;;;2.00;1.00;;;;;18.20;55.33;101981.03;4947710;28;45443;-70
2022/05/26 06:14:43;;;;;;;;;0.00;0.00;;;;;18.23;54.81;101991.72;4941650;28;46108;-70
2022/05/26 06:17:10;;;;;;;;;0.75;0.75;;;;;18.25;54.76;102008.72;4949529;28;45220;-70
2022/05/26 06:19:38;;;;;;;;;2.00;0.00;;;;;18.25;55.13;102005.16;4952776;28;45346;-70
2022/05/26 06:22:09;;;;;;;;;1.75;0.00;;;;;18.26;54.77;102005.09;4950559;28;45305;-71
2022/05/26 06:24:36;;;;;;;;;0.75;0.00;;;;;18.15;55.18;101991.16;4929514;28;45423;-71
2022/05/26 06:29:49;;;;;;;;;0.00;0.00;;;;;18.28;54.51;102014.00;4946264;28;45425;-71
2022/05/26 06:29:51;;;;;;;;;0.50;0.00;;;;;18.23;54.58;102001.66;4928197;28;45310;-71
2022/05/26 06:37:51;;;;;;;;;0.00;0.00;;;;;18.29;54.74;102025.69;4933819;28;45408;-71
2022/05/26 06:40:17;;;;;;;;;0.00;0.00;;;;;18.29;54.68;102028.38;4940680;28;45307;-71
2022/05/26 06:42:47;;;;;;;;;0.00;0.00;;;;;18.28;54.95;102032.94;4951016;28;45241;-71
2022/05/26 06:45:15;;;;;;;;;1.00;0.00;;;;;18.28;54.77;102032.06;4952374;28;45307;-71
2022/05/26 06:47:41;;;;;;;;;0.00;0.00;;;;;18.28;54.99;102032.94;4948136;28;45589;-71
2022/05/26 06:50:08;;;;;;;;;0.00;0.00;;;;;18.30;54.95;102038.25;4946034;28;45387;-71
2022/05/26 06:52:33;;;;;;;;;0.00;0.00;;;;;18.30;54.62;102038.25;4949915;28;45329;-71
2022/05/26 06:54:59;;;;;;;;;0.75;0.00;;;;;18.25;54.62;102037.59;4951729;28;45422;-71
2022/05/26 06:57:24;;;;;;;;;0.00;0.00;;;;;18.31;54.92;102042.75;4949489;28;45461;-71
2022/05/26 06:59:50;;;;;;;;;0.00;0.00;;;;;18.26;55.00;102039.31;4952221;28;45267;-71
2022/05/26 07:02:15;;;;;;;;;0.00;0.00;;;;;18.29;54.55;102040.09;4948530;28;45289;-71
2022/05/26 07:04:42;;;;;;;;;0.00;0.00;;;;;18.33;54.88;102048.94;4943101;28;45406;-71
2022/05/26 07:07:11;;;;;;;;;0.00;0.00;;;;;18.31;54.72;102040.03;4948647;28;45275;-71
2022/05/26 07:09:36;;;;;;;;;0.75;0.00;;;;;18.36;55.00;102054.22;4944054;28;45697;-71
2022/05/26 07:12:01;;;;;;;;;0.00;0.00;;;;;18.29;54.84;102039.19;4947738;28;45460;-71
2022/05/26 07:14:28;;;;;;;;;0.00;0.00;;;;;18.36;55.09;102054.22;4940212;28;45516;-71
2022/05/26 07:16:53;;;;;;;;;1.00;0.00;;;;;18.35;54.83;102055.16;4950810;28;45288;-71
2022/05/26 07:19:19;;;;;;;;;0.00;0.00;;;;;18.40;55.05;102057.66;4951977;28;45311;-71
2022/05/26 07:21:49;;;;;;;;;1.00;0.00;;;;;18.40;55.01;102071.19;4947351;28;45429;-71
2022/05/26 07:24:18;;;;;;;;;0.50;0.00;;;;;18.36;54.92;102066.84;4931545;28;45320;-71
2022/05/26 07:26:44;;;;;;;;;0.00;0.00;;;;;18.28;55.09;102056.38;4945257;28;45430;-71
2022/05/26 07:29:09;;;;;;;;;0.00;0.00;;;;;18.33;54.94;102076.84;4951906;28;45556;-71
2022/05/26 07:31:35;;;;;;;;;0.00;0.00;;;;;18.35;54.41;102090.28;4948383;28;45464;-71
2022/05/26 07:34:01;;;;;;;;;0.00;0.00;;;;;18.35;54.76;102076.78;4942609;28;45423;-71
2022/05/26 07:42:01;;;;;;;;;0.00;0.00;;;;;18.35;54.68;102081.31;4951766;28;45190;-71
2022/05/26 07:44:29;;;;;;;;;0.00;0.00;;;;;18.36;54.25;102081.25;4946177;28;45635;-71
2022/05/26 07:46:55;;;;;;;;;0.00;0.00;;;;;18.29;54.28;102068.94;4943648;28;46930;-71
2022/05/26 07:49:20;;;;;;;;;0.00;0.00;;;;;18.37;54.31;102087.53;4947198;28;45502;-71
2022/05/26 07:51:46;;;;;;;;;0.00;0.00;;;;;18.38;55.20;102094.69;4950389;28;45737;-71
2022/05/26 07:54:11;;;;;;;;;0.00;0.00;;;;;18.39;56.05;102099.16;4947506;28;45306;-71
2022/05/26 07:56:37;;;;;;;;;0.00;0.00;;;;;18.36;56.70;102099.28;4955475;28;45960;-71
2022/05/26 07:59:04;;;;;;;;;0.50;0.00;;;;;18.33;56.78;102117.38;4949932;28;45376;-71
2022/05/26 08:01:33;;;;;;;;;0.00;0.00;;;;;18.30;56.93;102104.00;4947615;28;45321;-71
2022/05/26 08:03:58;;;;;;;;;0.00;0.00;;;;;18.31;56.73;102107.59;4950778;28;45464;-71
2022/05/26 08:06:23;;;;;;;;;0.00;0.00;;;;;18.28;56.28;102099.63;4944940;28;45992;-71
2022/05/26 08:08:49;;;;;;;;;0.00;0.00;;;;;18.37;56.54;102120.84;4950492;28;45303;-71
2022/05/26 08:11:15;;;;;;;;;0.00;0.00;;;;;18.30;56.65;102106.72;4952685;28;45332;-71
2022/05/26 08:13:40;;;;;;;;;0.00;0.00;;;;;18.37;56.91;102115.44;4941296;28;45237;-71
2022/05/26 08:16:06;;;;;;;;;0.00;0.00;;;;;18.35;56.16;102106.50;4954245;28;45157;-71
2022/05/26 08:18:33;;;;;;;;;0.00;0.00;;;;;18.41;55.85;102125.19;4948901;28;45244;-71
2022/05/26 08:21:10;;;;;;;;;0.00;0.00;;;;;18.43;56.79;102136.81;4947759;28;45240;-71
2022/05/26 08:23:36;;;;;;;;;0.00;0.00;;;;;18.42;57.26;102129.63;4941300;28;45505;-71
2022/05/26 08:26:02;;;;;;;;;0.25;0.00;;;;;18.39;57.61;102135.16;4944442;28;46523;-71
2022/05/26 08:28:27;;;;;;;;;0.00;0.00;;;;;18.41;57.76;102140.50;4949171;28;45279;-71
2022/05/26 08:30:52;;;;;;;;;0.00;0.00;;;;;18.36;57.67;102129.00;4947629;28;45259;-71
2022/05/26 08:33:18;;;;;;;;;0.00;0.00;;;;;18.40;57.74;102142.34;4951007;28;45499;-71
2022/05/26 08:35:43;;;;;;;;;0.00;0.00;;;;;18.40;57.89;102149.56;4939846;28;45483;-71
2022/05/26 08:38:09;;;;;;;;;0.00;0.00;;;;;18.38;58.17;102143.38;4941341;28;45411;-71
2022/05/26 08:40:43;;;;;;;;;1.00;1.00;;;;;18.36;58.24;102137.13;4956877;28;45244;-71
2022/05/26 08:43:18;;;;;;;;;2.50;1.00;;;;;18.31;58.11;102137.34;4960288;28;45435;-71
2022/05/26 08:45:53;;;;;;;;;2.00;2.00;;;;;18.31;58.06;102149.03;4960106;28;45321;-71
2022/05/26 08:48:38;;;;;;;;;2.00;2.00;;;;;18.28;57.78;102153.69;4960104;28;45291;-71
2022/05/26 08:51:05;;;;;;;;;2.25;2.25;;;;;18.20;57.79;102145.03;4960355;28;45278;-71
2022/05/26 08:53:36;;;;;;;;;2.25;2.00;;;;;18.18;58.34;102157.72;4958781;28;45761;-71
2022/05/26 08:56:02;;;;;;;;;1.00;1.00;;;;;18.11;58.03;102149.88;4958831;28;46325;-71
2022/05/26 08:58:36;;;;;;;;;1.50;1.00;;;;;18.11;57.65;102155.28;4958701;28;46072;-71
2022/05/26 09:01:05;;;;;;;;;1.75;1.50;;;;;18.02;58.33;102155.63;4960285;28;45326;-71
2022/05/26 09:03:35;;;;;;;;;2.25;2.25;;;;;18.02;58.13;102161.03;4958291;28;45653;-71
2022/05/26 09:06:10;;;;;;;;;2.75;2.75;;;;;18.05;58.34;102165.44;4953297;28;46380;-71
2022/05/26 09:14:38;;;;;;;;;2.50;2.50;;;;;18.18;58.64;102155.88;4940697;28;45292;-71
2022/05/26 09:17:08;;;;;;;;;1.75;1.75;;;;;18.19;57.87;102159.47;4930200;28;45353;-71
2022/05/26 09:19:42;;;;;;;;;2.75;2.75;;;;;18.12;57.96;102154.31;4953433;28;45335;-71
2022/05/26 09:22:23;;;;;;;;;2.50;1.75;;;;;18.12;57.81;102157.00;4951496;28;45426;-71
2022/05/26 09:24:49;;;;;;;;;0.75;0.75;;;;;18.17;57.68;102161.34;4926832;28;45329;-71
2022/05/26 09:27:34;;;;;;;;;2.00;2.00;;;;;18.18;57.81;102165.84;4947422;28;45386;-71
2022/05/26 09:30:20;;;;;;;;;1.00;1.00;;;;;18.24;57.36;102162.84;4930093;28;45408;-71
2022/05/26 09:32:46;;;;;;;;;1.00;1.00;;;;;18.26;57.25;102158.25;4953343;28;45233;-71
2022/05/26 09:35:15;;;;;;;;;1.00;1.00;;;;;18.24;56.70;102168.25;4940558;28;45390;-71
2022/05/26 09:37:44;;;;;;;;;0.75;0.75;;;;;18.23;56.71;102182.72;4939653;28;45993;-72
2022/05/26 09:40:24;;;;;;;;;0.75;0.75;;;;;18.28;56.66;102181.59;4940457;28;45399;-71
2022/05/26 09:42:59;;;;;;;;;0.50;0.50;;;;;18.32;56.97;102182.31;4928039;28;45283;-71
2022/05/26 09:45:26;;;;;;;;;0.75;0.75;;;;;18.32;56.71;102185.91;4953166;28;45252;-71
2022/05/26 09:47:58;;;;;;;;;1.00;1.00;;;;;18.35;56.26;102189.44;4949759;28;46410;-71
2022/05/26 09:50:33;;;;;;;;;1.00;1.00;;;;;18.41;55.64;102190.06;4941357;28;45403;-71
2022/05/26 09:52:59;;;;;;;;;1.50;0.00;;;;;18.41;54.99;102184.66;4950767;28;45513;-71
2022/05/26 09:55:28;;;;;;;;;0.00;0.00;;;;;18.47;55.08;102188.91;4946127;28;45568;-71
2022/05/26 09:58:14;;;;;;;;;1.00;0.00;;;;;18.50;54.72;102197.78;4946691;28;46321;-71
2022/05/26 10:00:48;;;;;;;;;0.25;0.25;;;;;18.48;54.52;102186.16;4928735;28;45274;-71
2022/05/26 10:03:22;;;;;;;;;0.00;0.00;;;;;18.56;54.91;102193.94;4952919;28;45367;-71
2022/05/26 10:06:06;;;;;;;;;0.00;0.00;;;;;18.59;54.69;102195.63;4939905;28;45316;-71
2022/05/26 10:08:44;;;;;;;;;0.50;0.50;;;;;18.61;54.28;102191.91;4928156;28;46395;-71
2022/05/26 10:11:49;;;;;;;;;0.00;0.00;;;;;18.66;54.54;102191.69;4952709;28;45319;-71
2022/05/26 10:14:29;;;;;;;;;0.00;0.00;;;;;18.66;54.40;102189.88;4914051;28;45283;-71
2022/05/26 10:17:19;;;;;;;;;0.00;0.00;;;;;18.68;54.65;102201.50;4927649;28;45244;-71
2022/05/26 10:20:10;;;;;;;;;0.00;0.00;;;;;18.70;54.72;102199.63;4952788;28;45995;-71
2022/05/26 10:22:42;;;;;;;;;0.00;0.00;;;;;18.73;54.74;102203.13;4952260;28;45337;-71
2022/05/26 10:25:24;;;;;;;;;0.75;0.75;;;;;18.78;54.48;102195.72;4931635;28;45388;-71
2022/05/26 10:28:08;;;;;;;;;0.25;0.25;;;;;18.79;54.30;102209.16;4944906;28;45616;-71
2022/05/26 10:31:03;;;;;;;;;0.25;0.25;;;;;18.83;54.79;102196.44;4946080;28;45583;-71
2022/05/26 10:33:37;;;;;;;;;2.00;0.00;;;;;18.87;54.23;102193.50;4947965;28;45273;-71
2022/05/26 10:36:34;;;;;;;;;0.00;0.00;;;;;18.82;54.55;102167.56;4939146;28;45418;-71
2022/05/26 10:39:06;;;;;;;;;2.00;0.00;;;;;18.97;53.96;102187.69;4936570;28;45327;-71
2022/05/26 10:41:47;;;;;;;;;2.00;0.00;;;;;18.98;53.47;102182.22;4950951;28;45376;-71
2022/05/26 10:44:21;;;;;;;;;1.75;1.00;;;;;19.01;53.92;102192.00;4925731;28;45493;-71
2022/05/26 10:47:21;;;;;;;;;0.00;0.00;;;;;19.03;53.35;102196.41;4952475;28;45320;-71
2022/05/26 10:49:57;;;;;;;;;0.75;0.75;;;;;19.01;53.64;102183.88;4958069;28;45393;-71
2022/05/26 10:52:31;;;;;;;;;1.00;1.00;;;;;19.03;53.40;102191.00;4927843;28;45911;-71
2022/05/26 10:55:06;;;;;;;;;0.50;0.50;;;;;19.07;53.60;102192.59;4952767;28;45377;-71
2022/05/26 10:57:43;;;;;;;;;0.25;0.25;;;;;19.10;53.45;102190.72;4948950;28;45446;-71
2022/05/26 11:00:11;;;;;;;;;0.00;0.00;;;;;19.06;53.95;102188.16;4952279;28;45558;-71
2022/05/26 11:02:53;;;;;;;;;2.25;1.25;;;;;19.10;53.62;102188.88;4951383;28;45429;-71
2022/05/26 11:05:51;;;;;;;;;0.25;0.25;;;;;19.21;53.58;102199.22;4934665;28;45421;-71
2022/05/26 11:08:37;;;;;;;;;4.00;1.00;;;;;19.24;53.50;102196.38;4952120;28;45269;-71
2022/05/26 11:11:06;;;;;;;;;1.00;1.00;;;;;19.24;53.19;102188.25;4952186;28;45153;-71
2022/05/26 11:13:43;;;;;;;;;1.25;1.25;;;;;19.23;53.44;102184.69;4939100;28;45961;-71
2022/05/26 11:19:39;;;;;;;;;1.00;0.00;;;;;19.35;53.13;102176.94;4952048;28;45237;-71
2022/05/26 11:22:05;;;;;;;;;2.00;1.25;;;;;19.36;52.93;102171.47;4948441;28;45741;-71
2022/05/26 11:24:33;;;;;;;;;1.00;1.00;;;;;19.43;52.78;102178.34;4929230;28;46189;-71
2022/05/26 11:27:07;;;;;;;;;0.00;0.00;;;;;19.47;52.22;102170.94;4945652;28;45418;-71
2022/05/26 11:29:44;;;;;;;;;0.25;0.25;;;;;19.50;52.11;102167.22;4951995;28;45409;-71
2022/05/26 11:37:52;;;;;;;;;1.00;1.00;;;;;19.61;51.87;102167.56;4939133;28;45252;-71
2022/05/26 11:40:28;;;;;;;;;0.00;0.00;;;;;19.61;52.09;102167.56;4952749;28;45428;-71
2022/05/26 11:42:55;;;;;;;;;0.00;0.00;;;;;19.63;51.55;102165.69;4958333;28;45181;-71
2022/05/26 11:45:28;;;;;;;;;0.00;0.00;;;;;19.66;51.61;102170.06;4944992;28;45931;-71
2022/05/26 11:47:57;;;;;;;;;0.00;0.00;;;;;19.69;51.39;102172.63;4947632;28;45383;-71
2022/05/26 11:50:30;;;;;;;;;1.00;1.00;;;;;19.71;51.18;102159.88;4950412;28;45376;-71
2022/05/26 11:52:55;;;;;;;;;1.00;1.00;;;;;19.73;51.50;102158.88;4950629;28;45373;-71
2022/05/26 11:55:51;;;;;;;;;0.00;0.00;;;;;19.78;50.94;102166.81;4943045;28;48210;-71
2022/05/26 11:58:18;;;;;;;;;0.00;0.00;;;;;19.82;51.15;102162.13;4943510;28;45365;-71
2022/05/26 12:00:45;;;;;;;;;0.00;0.00;;;;;19.84;51.39;102160.19;4948824;28;45394;-71
2022/05/26 12:03:22;;;;;;;;;0.75;0.75;;;;;19.87;51.25;102160.06;4951407;28;45494;-71
2022/05/26 12:06:11;;;;;;;;;1.50;1.50;;;;;19.87;51.55;102162.78;4938531;28;45303;-71
2022/05/26 12:08:45;;;;;;;;;0.25;0.25;;;;;19.92;51.37;102160.72;4926846;28;45544;-71
2022/05/26 12:11:12;;;;;;;;;0.50;0.50;;;;;19.92;51.28;102164.28;4951279;28;45216;-71
2022/05/26 12:13:41;;;;;;;;;0.00;0.00;;;;;19.97;51.39;102164.06;4938491;28;45240;-71
2022/05/26 12:16:19;;;;;;;;;0.75;0.75;;;;;20.02;51.19;102166.56;4951311;28;45547;-71
2022/05/26 12:18:50;;;;;;;;;1.00;1.00;;;;;20.03;51.09;102161.06;4947472;28;45234;-71